GMTN/TTU METAR and TAF weather

Enter ICAO airport designator
Station Type Date Time Source
GMTN METAR 2021/03/03 21:00 UTC NOAA

GMTN 032100Z 10014KT 8000 SCT015 SCT026 15/13 Q1024 NOSIG


Station Type Date Time Source
GMTN Decoded METAR 2021/03/03 21:00 UTC NOAA

Tetuan / Sania Ramel, Morocco (GMTN) 35-35N 005-20W 10M
Mar 03, 2021 - 04:00 PM EST / 2021.03.03 2100 UTC
Wind: from the E (100 degrees) at 16 MPH (14 KT):0
Visibility: 4 mile(s):0
Sky conditions: partly cloudy
Temperature: 59 F (15 C)
Dew Point: 55 F (13 C)
Relative Humidity: 87%
Pressure (altimeter): 30.24 in. Hg (1024 hPa)
ob: GMTN 032100Z 10014KT 8000 SCT015 SCT026 15/13 Q1024 NOSIG
cycle: 21

Station Type Date Time Source
GMTN TAF UTC NOAA

Error!

Example: see airport list